Orlando, FL

12:21 PM EDT on June 02, 2015 (GMT -0400)
Conway | | Change Station
CLOSE
Current Station
Personal Weather Station
Location: Orlando, FL
Elevation: 100 ft
Nearby Weather Stations

Elev 100 ft 28.51 °N, 81.33 °W | Updated 27 seconds ago

Clear
Clear
83.8 °F
Feels Like 89 °F
N
4.6
Wind Variable Wind from NNE
Gusts 4.6 mph

Today
High -- | Low -- °F
--% Chance of Precip.
Yesterday
High -- | Low -- °F
Precip. -- in
6:28 AM 8:19 PM
Full, 100% visible
Pressure 30.03 in
Visibility 10.0 miles
Clouds Clear
Heat Index 89 °F
Dew Point 72 °F
Humidity 68%
Rainfall 0.00 in
Snow Depth Not available.
UV 14 out of 12
Pollen .60 out of 12
Air Quality Not available.
Flu Activity Sporadic
METAR KORL 021553Z 20005KT 10SM CLR 28/21 A3002 RMK AO2 SLP169 T02780211

More Conditions Fewer Conditions

Pressure 30.03 in
Visibility 10.0 miles
Clouds Clear
Heat Index 89 °F
Dew Point 72 °F
Humidity 68%
Rainfall 0.00 in
Snow Depth Not available.
UV 14 out of 12
Pollen .60 out of 12
Air Quality Not available.
Flu Activity Sporadic
METAR KORL 021553Z 20005KT 10SM CLR 28/21 A3002 RMK AO2 SLP169 T02780211

More Conditions Fewer Conditions

Nowcast | as of 11:33 am EDT on June 2, 2015

developing Atlantic coast sea breeze... Scattered showers and thunderstorms will develop along a weak Atlantic coast sea breeze front early this afternoon. Inland areas of showers and thunderstorms will develop after 200 PM afternoon... with increasing coverage and strength. A few storms will become strong late this afternoon... capable of producing frequent lightning strikes... gusty winds and hail and brief heavy downpour. Initial movement will be inland... then east northeast late this afternoon. Additional details...including graphics are available online at: http://www.Srh.NOAA.Gov/mlb/blog.Php

×

10-Day Weather Forecast

Almanac

Astronomy

Jun. 02, 2015 Rise Set
Actual Time
Civil Twilight
Nautical Twilight
Astronomical Twilight
Moon
Length of Visible Light
Length of Day
Tomorrow will be .
, % of the Moon is Illuminated

Today's Extremes

State Highs State Lows

Community

WunderPhotos

Upload Photos

1,825,974 photos uploaded!

WunderBlogs® & News

Nearby

Air Quality

  Air Quality AQ Index Pollutant
Not available.

Snow Depth

Station Depth Elevation

Earthquake Activity

City Distance Mag. Time & Date
Minimum magnitude displayed is 2.5.

Coastal Water Temperatures

Place Temperature

Stations

Nearby Weather Stations

Station Location Temp. Windchill Dew Point Humidity Wind Precip. Elev Updated Type